Flight Track Log - Related Links

Times and Time Zones

All times are in EDT time to prevent confusion due to time zone crossing. See the N500TC flight status page for this flight to view local times or setup timezone preferences in your user account.

Time Position Orientation Groundspeed Altitude Reporting Facility
EDT Latitude Longitude Course Direction KTS MPH feet Rate Location/Type
Sun 05:00:00 PM 34.3727 -79.5298 41° Northeast  Level Estimated
Sun 05:01:00 PM 34.3994 -79.5020 41° Northeast  Level Estimated
Sun 05:02:00 PM 34.4262 -79.4742 41° Northeast  Level Estimated
Sun 05:03:00 PM 34.4529 -79.4463 41° Northeast  Level Estimated
Sun 05:04:00 PM 34.4796 -79.4184 41° Northeast  Level Estimated
Sun 05:05:00 PM 34.5063 -79.3906 41° Northeast  Level Estimated
Sun 05:06:00 PM 34.5330 -79.3627 41° Northeast  Level Estimated
Sun 05:07:00 PM 34.5597 -79.3348 41° Northeast  Level Estimated
Sun 05:08:00 PM 34.5864 -79.3068 41° Northeast  Level Estimated
Sun 05:09:00 PM 34.6131 -79.2789 41° Northeast  Level Estimated
Sun 05:10:00 PM 34.6391 -79.2517 41° Northeast  Level Estimated
Sun 05:11:00 PM 34.6651 -79.2244 41° Northeast  Level Estimated
Sun 05:12:00 PM 34.6911 -79.1971 41° Northeast  Level Estimated
Sun 05:13:00 PM 34.7170 -79.1698 41° Northeast  Level Estimated
Sun 05:14:00 PM 34.7430 -79.1425 41° Northeast  Level Estimated
Sun 05:15:00 PM 34.7690 -79.1152 41° Northeast  Level Estimated
Sun 05:16:00 PM 34.7949 -79.0878 41° Northeast  Level Estimated
Sun 05:17:00 PM 34.8209 -79.0605 41° Northeast  Level Estimated
Sun 05:18:00 PM 34.8468 -79.0331 41° Northeast  Level Estimated
Sun 05:19:00 PM 34.8728 -79.0057 41° Northeast  Level Estimated
Sun 05:20:00 PM 34.8987 -78.9783 41° Northeast  Level Estimated
Sun 05:21:00 PM 34.9246 -78.9508 41° Northeast  Level Estimated
Sun 05:22:00 PM 34.9506 -78.9234 41° Northeast  Level Estimated
Sun 05:23:00 PM 34.9765 -78.8959 41° Northeast  Level Estimated
Sun 05:24:00 PM 34.9912 -78.8803 41° Northeast  Level Estimated
Sun 05:25:00 PM 34.9912 -78.8803 39° Northeast  Level Estimated
Sun 05:26:00 PM 34.9912 -78.8803 39° Northeast  Level Estimated
Sun 05:27:00 PM 34.9912 -78.8803 39° Northeast  Level Estimated
Sun 05:28:00 PM 34.9912 -78.8803 39° Northeast  Level Estimated

Login

Don't have an account? Register now (free) for customized features, flight alerts, and more!